createdAt,value
2022-09-03T00:00:12.043Z,100107.69
2022-09-03T00:02:20.251Z,100108.03
2022-09-03T00:04:29.918Z,100107.97
2022-09-03T00:06:38.216Z,100112.72
2022-09-03T00:08:47.456Z,100106.59
2022-09-03T00:10:56.279Z,100105.63
2022-09-03T00:13:04.997Z,100105.56
2022-09-03T00:15:13.024Z,100109.06
2022-09-03T00:17:18.631Z,100105.75
2022-09-03T00:19:25.275Z,100105.75
2022-09-03T00:21:39.313Z,100109.38
2022-09-03T00:23:43.869Z,100111.22
2022-09-03T00:25:50.276Z,100111.53
2022-09-03T00:27:56.744Z,100115.16
2022-09-03T00:30:04.258Z,100111.25
2022-09-03T00:32:14.497Z,100102.47
2022-09-03T00:34:25.341Z,100097.13
2022-09-03T00:36:35.097Z,100101.69
2022-09-03T00:38:38.579Z,100109.81
2022-09-03T00:41:02.264Z,100109.56
2022-09-03T00:43:16.665Z,100109.38
2022-09-03T00:45:29.198Z,100115.97
2022-09-03T00:47:42.396Z,100114.84
2022-09-03T00:49:58.573Z,100110.28
2022-09-03T00:52:13.952Z,100106.91
2022-09-03T00:54:27.068Z,100098.91
2022-09-03T00:56:43.630Z,100099.88
2022-09-03T00:58:59.842Z,100095.63
2022-09-03T01:01:11.623Z,100102.00
2022-09-03T01:03:25.196Z,100102.00
2022-09-03T01:05:41.815Z,100100.22
2022-09-03T01:07:50.936Z,100100.84
2022-09-03T01:10:04.642Z,100105.22
2022-09-03T01:12:14.939Z,100102.41
2022-09-03T01:14:30.784Z,100102.47
2022-09-03T01:16:39.911Z,100111.44
2022-09-03T01:18:52.872Z,100105.47
2022-09-03T01:21:14.952Z,100103.91
2022-09-03T01:23:39.541Z,100104.91
2022-09-03T01:26:04.340Z,100106.47
2022-09-03T01:28:32.835Z,100111.22
2022-09-03T01:30:41.267Z,100106.16
2022-09-03T01:32:49.965Z,100110.59
2022-09-03T01:34:59.010Z,100114.88
2022-09-03T01:37:15.632Z,100108.63
2022-09-03T01:39:27.436Z,100110.38
2022-09-03T01:42:01.508Z,100115.66
2022-09-03T01:44:20.897Z,100110.84
2022-09-03T01:46:27.548Z,100109.09
2022-09-03T01:48:43.799Z,100106.16
2022-09-03T01:50:54.834Z,100107.00
2022-09-03T01:53:06.110Z,100114.38
2022-09-03T01:55:25.296Z,100109.94
2022-09-03T01:57:47.561Z,100110.91
2022-09-03T01:59:59.337Z,100106.81
2022-09-03T02:02:08.831Z,100102.00
2022-09-03T02:04:20.435Z,100111.94
2022-09-03T02:06:23.317Z,100115.66
2022-09-03T02:08:26.282Z,100121.91
2022-09-03T02:10:33.811Z,100119.81
2022-09-03T02:12:39.303Z,100113.81
2022-09-03T02:14:42.342Z,100120.06
2022-09-03T02:16:46.880Z,100122.59
2022-09-03T02:18:53.175Z,100121.81
2022-09-03T02:20:56.906Z,100132.59
2022-09-03T02:23:00.383Z,100134.41
2022-09-03T02:25:03.284Z,100130.84
2022-09-03T02:27:06.186Z,100133.50
2022-09-03T02:29:09.028Z,100131.81
2022-09-03T02:31:11.901Z,100130.34
2022-09-03T02:33:17.101Z,100127.69
2022-09-03T02:35:19.956Z,100129.31
2022-09-03T02:37:23.561Z,100131.84
2022-09-03T02:39:28.770Z,100131.06
2022-09-03T02:41:32.215Z,100130.06
2022-09-03T02:43:40.812Z,100129.06
2022-09-03T02:45:48.231Z,100126.53
2022-09-03T02:47:55.552Z,100120.59
2022-09-03T02:49:59.843Z,100122.53
2022-09-03T02:52:06.425Z,100128.00
2022-09-03T02:54:10.545Z,100122.72
2022-09-03T02:56:13.775Z,100122.72
2022-09-03T02:58:16.952Z,100114.66
2022-09-03T03:00:19.862Z,100109.53
2022-09-03T03:02:22.783Z,100110.50
2022-09-03T03:04:25.678Z,100115.88
2022-09-03T03:06:29.954Z,100122.91
2022-09-03T03:08:34.715Z,100125.69
2022-09-03T03:10:38.149Z,100114.09
2022-09-03T03:12:40.966Z,100113.25
2022-09-03T03:14:43.900Z,100119.25
2022-09-03T03:16:46.794Z,100116.00
2022-09-03T03:18:50.803Z,100112.63
2022-09-03T03:20:54.484Z,100112.63
2022-09-03T03:22:58.692Z,100113.56
2022-09-03T03:25:01.559Z,100104.22
2022-09-03T03:27:07.174Z,100107.66
2022-09-03T03:29:16.726Z,100103.31
2022-09-03T03:31:22.247Z,100106.75
2022-09-03T03:33:25.261Z,100107.66
2022-09-03T03:35:28.175Z,100102.47
2022-09-03T03:37:31.446Z,100106.00
2022-09-03T03:39:35.606Z,100104.31
2022-09-03T03:41:38.424Z,100109.75
2022-09-03T03:43:41.257Z,100109.75
2022-09-03T03:45:44.145Z,100114.19
2022-09-03T03:47:47.053Z,100110.66
2022-09-03T03:49:49.891Z,100114.03
2022-09-03T03:51:52.707Z,100112.44
2022-09-03T03:53:58.662Z,100108.09
2022-09-03T03:56:09.596Z,100117.06
2022-09-03T03:58:12.490Z,100117.06
2022-09-03T04:00:16.821Z,100111.69
2022-09-03T04:02:19.825Z,100121.38
2022-09-03T04:04:22.783Z,100119.63
2022-09-03T04:06:25.943Z,100125.69
2022-09-03T04:08:28.859Z,100120.38
2022-09-03T04:10:31.931Z,100122.06
2022-09-03T04:12:36.089Z,100113.22
2022-09-03T04:14:38.989Z,100120.31
2022-09-03T04:16:41.965Z,100114.94
2022-09-03T04:18:45.576Z,100116.69
2022-09-03T04:20:51.228Z,100111.50
2022-09-03T04:22:54.068Z,100122.91
2022-09-03T04:25:00.374Z,100124.69
2022-09-03T04:27:04.382Z,100123.06
2022-09-03T04:29:10.863Z,100132.88
2022-09-03T04:31:15.519Z,100131.19
2022-09-03T04:33:17.584Z,100143.47
2022-09-03T04:35:20.877Z,100140.94
2022-09-03T04:37:23.832Z,100140.63
2022-09-03T04:39:27.234Z,100138.09
2022-09-03T04:41:32.110Z,100142.69
2022-09-03T04:43:35.301Z,100144.56
2022-09-03T04:45:39.514Z,100136.81
2022-09-03T04:47:42.517Z,100142.09
2022-09-03T04:49:45.352Z,100139.84
2022-09-03T04:51:48.154Z,100141.72
2022-09-03T04:53:56.539Z,100147.00
2022-09-03T04:55:59.344Z,100143.44
2022-09-03T04:58:02.281Z,100142.66
2022-09-03T05:00:10.555Z,100148.94
2022-09-03T05:02:15.520Z,100151.66
2022-09-03T05:04:19.160Z,100158.91
2022-09-03T05:06:22.002Z,100157.16
2022-09-03T05:08:25.783Z,100161.56
2022-09-03T05:10:28.820Z,100165.13
2022-09-03T05:12:31.669Z,100160.63
2022-09-03T05:14:34.534Z,100151.97
2022-09-03T05:16:37.499Z,100156.47
2022-09-03T05:18:42.371Z,100162.63
2022-09-03T05:20:45.166Z,100155.63
2022-09-03T05:22:48.029Z,100167.97
2022-09-03T05:24:51.372Z,100175.94
2022-09-03T05:26:55.391Z,100170.63
2022-09-03T05:29:02.851Z,100173.25
2022-09-03T05:31:07.669Z,100169.91
2022-09-03T05:33:10.485Z,100179.50
2022-09-03T05:35:14.881Z,100166.09
2022-09-03T05:37:17.714Z,100183.78
2022-09-03T05:39:20.631Z,100176.88
2022-09-03T05:41:24.567Z,100176.78
2022-09-03T05:43:27.520Z,100188.97
2022-09-03T05:45:32.147Z,100188.25
2022-09-03T05:47:35.004Z,100196.13
2022-09-03T05:49:38.021Z,100192.56
2022-09-03T05:51:42.564Z,100189.03
2022-09-03T05:53:46.848Z,100193.28
2022-09-03T05:55:56.591Z,100197.81
2022-09-03T05:57:59.454Z,100194.22
2022-09-03T06:00:02.295Z,100200.38
2022-09-03T06:02:15.035Z,100196.75
2022-09-03T06:04:18.154Z,100192.53
2022-09-03T06:06:25.560Z,100193.38
2022-09-03T06:08:29.816Z,100197.03
2022-09-03T06:10:40.358Z,100204.63
2022-09-03T06:12:49.709Z,100193.91
2022-09-03T06:14:52.549Z,100198.81
2022-09-03T06:16:56.877Z,100201.66
2022-09-03T06:19:00.129Z,100199.75
2022-09-03T06:21:04.619Z,100198.69
2022-09-03T06:23:07.291Z,100196.28
2022-09-03T06:25:12.075Z,100198.75
2022-09-03T06:27:15.003Z,100209.38
2022-09-03T06:29:19.105Z,100213.91
2022-09-03T06:31:23.394Z,100221.94
2022-09-03T06:33:26.440Z,100226.19
2022-09-03T06:35:29.525Z,100222.81
2022-09-03T06:37:39.891Z,100220.47
2022-09-03T06:39:42.767Z,100217.00
2022-09-03T06:41:48.171Z,100221.63
2022-09-03T06:43:51.106Z,100223.44
2022-09-03T06:45:55.851Z,100218.09
2022-09-03T06:47:58.716Z,100225.31
2022-09-03T06:50:02.120Z,100235.75
2022-09-03T06:52:04.987Z,100227.72
2022-09-03T06:54:09.711Z,100238.19
2022-09-03T06:56:14.396Z,100236.53
2022-09-03T06:58:18.660Z,100235.47
2022-09-03T07:00:24.811Z,100225.66
2022-09-03T07:02:27.726Z,100235.47
2022-09-03T07:04:31.321Z,100233.00
2022-09-03T07:06:38.503Z,100226.28
2022-09-03T07:08:42.907Z,100238.63
2022-09-03T07:10:49.067Z,100231.06
2022-09-03T07:12:51.855Z,100242.56
2022-09-03T07:14:56.028Z,100237.13
2022-09-03T07:16:58.853Z,100243.16
2022-09-03T07:19:03.551Z,100251.22
2022-09-03T07:21:08.826Z,100252.91
2022-09-03T07:23:11.663Z,100244.94
2022-09-03T07:25:14.693Z,100252.13
2022-09-03T07:27:17.553Z,100254.06
2022-09-03T07:29:21.597Z,100261.22
2022-09-03T07:31:28.642Z,100263.75
2022-09-03T07:33:33.848Z,100262.06
2022-09-03T07:35:37.606Z,100265.84
2022-09-03T07:37:42.824Z,100255.81
2022-09-03T07:39:46.813Z,100259.47
2022-09-03T07:41:50.141Z,100254.47
2022-09-03T07:43:53.258Z,100265.09
2022-09-03T07:45:58.075Z,100256.06
2022-09-03T07:48:04.644Z,100264.59
2022-09-03T07:50:07.965Z,100259.13
2022-09-03T07:52:12.252Z,100259.66
2022-09-03T07:54:20.376Z,100263.91
2022-09-03T07:56:23.504Z,100264.97
2022-09-03T07:58:26.327Z,100254.50
2022-09-03T08:00:29.301Z,100244.09
2022-09-03T08:02:32.151Z,100240.41
2022-09-03T08:04:36.704Z,100242.00
2022-09-03T08:06:39.528Z,100245.34
2022-09-03T08:08:45.031Z,100244.72
2022-09-03T08:11:37.558Z,100247.63
2022-09-03T08:13:41.073Z,100250.34
2022-09-03T08:15:43.944Z,100260.03
2022-09-03T08:17:47.048Z,100254.56
2022-09-03T08:19:51.672Z,100239.56
2022-09-03T08:21:54.458Z,100235.13
2022-09-03T08:24:02.562Z,100250.34
2022-09-03T08:26:06.846Z,100251.47
2022-09-03T08:28:09.770Z,100243.69
2022-09-03T08:30:13.070Z,100236.38
2022-09-03T08:32:16.072Z,100239.97
2022-09-03T08:34:19.066Z,100250.72
2022-09-03T08:36:25.281Z,100267.56
2022-09-03T08:38:28.128Z,100282.66
2022-09-03T08:40:33.749Z,100300.19
2022-09-03T08:42:47.253Z,100309.78
2022-09-03T08:44:54.223Z,100309.00
2022-09-03T08:47:03.043Z,100315.34
2022-09-03T08:49:10.004Z,100310.09
2022-09-03T08:51:17.153Z,100321.41
2022-09-03T08:53:27.193Z,100318.66
2022-09-03T08:55:36.118Z,100322.13
2022-09-03T08:57:44.687Z,100323.91
2022-09-03T08:59:49.743Z,100314.19
2022-09-03T09:01:58.592Z,100314.03
2022-09-03T09:04:11.859Z,100313.72
2022-09-03T09:06:22.975Z,100323.47
2022-09-03T09:08:36.164Z,100328.69
2022-09-03T09:10:45.484Z,100328.72
2022-09-03T09:12:59.674Z,100331.25
2022-09-03T09:15:10.092Z,100318.03
2022-09-03T09:17:45.140Z,100312.69
2022-09-03T09:19:59.765Z,100315.28
2022-09-03T09:22:06.102Z,100310.03
2022-09-03T09:24:23.235Z,100313.00
2022-09-03T09:26:26.192Z,100315.38
2022-09-03T09:28:36.088Z,100312.59
2022-09-03T09:30:39.175Z,100309.22
2022-09-03T09:32:42.053Z,100309.97
2022-09-03T09:34:47.480Z,100320.38
2022-09-03T09:36:56.048Z,100314.22
2022-09-03T09:39:11.180Z,100317.81
2022-09-03T09:41:16.324Z,100316.88
2022-09-03T09:43:21.457Z,100317.53
2022-09-03T09:45:24.323Z,100313.97
2022-09-03T09:47:31.553Z,100315.50
2022-09-03T09:49:36.305Z,100315.19
2022-09-03T09:51:39.159Z,100321.63
2022-09-03T09:53:44.878Z,100307.66
2022-09-03T09:55:54.951Z,100310.97
2022-09-03T09:58:14.075Z,100312.41
2022-09-03T10:00:19.116Z,100310.19
2022-09-03T10:02:27.201Z,100313.28
2022-09-03T10:04:33.538Z,100312.78
2022-09-03T10:06:55.506Z,100308.75
2022-09-03T10:09:08.016Z,100312.22
2022-09-03T10:11:12.898Z,100309.69
2022-09-03T10:13:19.728Z,100308.50
2022-09-03T10:15:26.952Z,100307.63
2022-09-03T10:17:40.279Z,100308.56
2022-09-03T10:20:11.336Z,100307.78
2022-09-03T10:22:20.710Z,100300.88
2022-09-03T10:24:39.587Z,100296.88
2022-09-03T10:26:46.360Z,100287.19
2022-09-03T10:28:55.881Z,100295.38
2022-09-03T10:31:37.654Z,100294.59
2022-09-03T10:33:49.189Z,100291.19
2022-09-03T10:35:58.544Z,100293.13
2022-09-03T10:38:11.717Z,100285.88
2022-09-03T10:40:30.795Z,100283.88
2022-09-03T10:42:45.726Z,100286.41
2022-09-03T10:45:00.687Z,100280.41
2022-09-03T10:47:19.674Z,100280.06
2022-09-03T10:49:36.220Z,100283.69
2022-09-03T10:51:47.433Z,100281.56
2022-09-03T10:54:22.531Z,100281.19
2022-09-03T10:56:33.981Z,100281.63
2022-09-03T10:59:00.210Z,100276.63
2022-09-03T11:01:11.432Z,100272.88
2022-09-03T11:03:47.984Z,100277.56
2022-09-03T11:06:01.453Z,100289.50
2022-09-03T11:08:10.784Z,100289.56
2022-09-03T11:10:19.323Z,100291.41
2022-09-03T11:12:28.968Z,100286.91
2022-09-03T11:14:42.406Z,100283.81
2022-09-03T11:16:49.453Z,100283.72
2022-09-03T11:18:56.132Z,100285.22
2022-09-03T11:21:07.696Z,100291.88
2022-09-03T11:23:15.093Z,100283.03
2022-09-03T11:25:21.779Z,100287.41
2022-09-03T11:27:36.603Z,100282.31
2022-09-03T11:29:49.807Z,100280.44
2022-09-03T11:31:59.657Z,100276.00
2022-09-03T11:34:08.248Z,100273.97
2022-09-03T11:36:12.737Z,100265.19
2022-09-03T11:38:23.440Z,100263.63
2022-09-03T11:40:33.083Z,100263.41
2022-09-03T11:42:39.145Z,100261.41
2022-09-03T11:44:51.615Z,100258.19
2022-09-03T11:46:56.859Z,100247.22
2022-09-03T11:49:11.791Z,100256.75
2022-09-03T11:51:32.094Z,100246.66
2022-09-03T11:53:35.923Z,100250.97
2022-09-03T11:55:54.639Z,100254.72
2022-09-03T11:57:58.601Z,100251.50
2022-09-03T12:00:14.501Z,100253.00
2022-09-03T12:02:27.355Z,100244.53
2022-09-03T12:04:41.127Z,100243.81
2022-09-03T12:07:04.087Z,100243.53
2022-09-03T12:09:24.374Z,100239.22
2022-09-03T12:12:09.945Z,100238.53
2022-09-03T12:14:23.647Z,100235.97
2022-09-03T12:16:50.905Z,100238.13
2022-09-03T12:18:57.455Z,100230.94
2022-09-03T12:21:04.919Z,100238.19
2022-09-03T12:23:08.484Z,100228.81
2022-09-03T12:25:14.810Z,100231.59
2022-09-03T12:27:24.156Z,100230.03
2022-09-03T12:29:31.180Z,100224.25
2022-09-03T12:31:48.961Z,100237.13
2022-09-03T12:33:54.006Z,100233.19
2022-09-03T12:35:58.724Z,100238.41
2022-09-03T12:38:08.117Z,100234.88
2022-09-03T12:40:21.493Z,100236.13
2022-09-03T12:42:27.808Z,100240.56
2022-09-03T12:44:33.272Z,100239.75
2022-09-03T12:46:36.196Z,100233.44
2022-09-03T12:48:44.071Z,100231.13
2022-09-03T12:50:56.719Z,100235.56
2022-09-03T12:53:02.558Z,100235.88
2022-09-03T12:55:09.412Z,100242.47
2022-09-03T12:57:15.966Z,100244.28
2022-09-03T12:59:22.644Z,100240.41
2022-09-03T13:01:31.566Z,100257.59
2022-09-03T13:03:49.276Z,100263.19
2022-09-03T13:05:55.818Z,100260.84
2022-09-03T13:08:04.078Z,100256.00
2022-09-03T13:10:19.106Z,100253.88
2022-09-03T13:12:24.726Z,100249.78
2022-09-03T13:14:29.130Z,100252.56
2022-09-03T13:17:07.527Z,100253.75
2022-09-03T13:19:21.125Z,100260.31
2022-09-03T13:21:37.026Z,100256.94
2022-09-03T13:23:57.582Z,100260.03
2022-09-03T13:26:10.561Z,100256.53
2022-09-03T13:28:29.813Z,100255.66
2022-09-03T13:30:39.406Z,100261.97
2022-09-03T13:32:57.867Z,100254.28
2022-09-03T13:35:11.662Z,100255.19
2022-09-03T13:37:32.861Z,100250.56
2022-09-03T13:39:42.311Z,100248.19
2022-09-03T13:41:49.992Z,100245.78
2022-09-03T13:43:58.712Z,100249.78
2022-09-03T13:46:07.344Z,100243.25
2022-09-03T13:48:46.055Z,100249.22
2022-09-03T13:50:59.623Z,100235.69
2022-09-03T13:53:09.176Z,100242.09
2022-09-03T13:55:18.241Z,100241.25
2022-09-03T13:57:29.341Z,100232.50
2022-09-03T13:59:44.693Z,100229.31
2022-09-03T14:02:03.948Z,100239.09
2022-09-03T14:04:15.583Z,100242.34
2022-09-03T14:06:34.154Z,100242.53
2022-09-03T14:08:55.432Z,100248.16
2022-09-03T14:11:09.921Z,100250.00
2022-09-03T14:13:23.042Z,100255.38
2022-09-03T14:15:35.449Z,100250.53
2022-09-03T14:17:42.621Z,100241.06
2022-09-03T14:19:53.818Z,100231.78
2022-09-03T14:22:02.579Z,100231.63
2022-09-03T14:24:11.503Z,100231.69
2022-09-03T14:26:27.107Z,100237.38
2022-09-03T14:28:50.457Z,100236.63
2022-09-03T14:31:02.954Z,100234.25
2022-09-03T14:33:14.286Z,100247.88
2022-09-03T14:35:39.949Z,100237.69
2022-09-03T14:38:20.536Z,100233.97
2022-09-03T14:40:30.828Z,100240.72
2022-09-03T14:42:49.157Z,100229.13
2022-09-03T14:45:32.439Z,100233.22
2022-09-03T14:47:48.078Z,100241.56
2022-09-03T14:50:19.900Z,100242.84
2022-09-03T14:52:51.197Z,100244.06
2022-09-03T14:55:22.335Z,100244.25
2022-09-03T14:58:03.026Z,100247.41
2022-09-03T15:00:20.011Z,100249.03
2022-09-03T15:02:47.467Z,100232.91
2022-09-03T15:05:16.527Z,100242.53
2022-09-03T15:07:32.892Z,100241.63
2022-09-03T15:09:43.489Z,100245.50
2022-09-03T15:11:55.232Z,100250.13
2022-09-03T15:14:11.392Z,100249.81
2022-09-03T15:16:35.227Z,100251.03
2022-09-03T15:18:52.364Z,100261.41
2022-09-03T15:21:03.558Z,100254.41
2022-09-03T15:23:50.114Z,100249.81
2022-09-03T15:26:30.406Z,100250.28
2022-09-03T15:28:44.166Z,100254.22
2022-09-03T15:30:57.283Z,100259.09
2022-09-03T15:33:11.931Z,100258.41
2022-09-03T15:35:33.499Z,100256.84
2022-09-03T15:37:45.426Z,100246.31
2022-09-03T15:39:59.367Z,100251.47
2022-09-03T15:42:07.778Z,100258.91
2022-09-03T15:44:19.293Z,100259.59
2022-09-03T15:46:46.843Z,100259.88
2022-09-03T15:48:57.962Z,100255.69
2022-09-03T15:51:12.071Z,100245.22
2022-09-03T15:53:25.414Z,100246.22
2022-09-03T15:55:35.087Z,100246.47
2022-09-03T15:57:48.852Z,100242.41
2022-09-03T16:00:02.788Z,100249.75
2022-09-03T16:02:14.468Z,100245.53
2022-09-03T16:04:34.836Z,100250.09
2022-09-03T16:06:53.333Z,100247.03
2022-09-03T16:09:00.607Z,100248.94
2022-09-03T16:11:09.619Z,100253.50
2022-09-03T16:13:32.565Z,100251.69
2022-09-03T16:15:41.524Z,100250.91
2022-09-03T16:17:53.524Z,100256.06
2022-09-03T16:20:03.238Z,100263.19
2022-09-03T16:22:13.351Z,100264.91
2022-09-03T16:24:19.799Z,100259.00
2022-09-03T16:26:29.971Z,100258.00
2022-09-03T16:28:38.730Z,100264.16
2022-09-03T16:30:59.593Z,100267.94
2022-09-03T16:33:10.561Z,100265.28
2022-09-03T16:35:23.099Z,100273.16
2022-09-03T16:37:35.403Z,100267.94
2022-09-03T16:39:50.234Z,100266.19
2022-09-03T16:41:58.963Z,100276.50
2022-09-03T16:44:09.984Z,100279.88
2022-09-03T16:46:25.915Z,100278.00
2022-09-03T16:48:37.243Z,100280.63
2022-09-03T16:50:57.999Z,100275.41
2022-09-03T16:53:10.756Z,100281.47
2022-09-03T16:55:22.585Z,100288.50
2022-09-03T16:57:39.546Z,100283.00
2022-09-03T17:00:09.953Z,100292.75
2022-09-03T17:02:41.546Z,100289.31
2022-09-03T17:05:13.660Z,100290.25
2022-09-03T17:07:31.995Z,100292.84
2022-09-03T17:09:56.179Z,100290.09
2022-09-03T17:12:10.082Z,100283.91
2022-09-03T17:14:28.532Z,100292.69
2022-09-03T17:16:45.300Z,100294.47
2022-09-03T17:18:55.743Z,100285.50
2022-09-03T17:21:19.204Z,100289.94
2022-09-03T17:23:47.086Z,100293.78
2022-09-03T17:25:55.517Z,100289.66
2022-09-03T17:28:12.934Z,100296.66
2022-09-03T17:30:24.689Z,100297.25
2022-09-03T17:32:46.067Z,100288.41
2022-09-03T17:35:04.387Z,100286.66
2022-09-03T17:37:21.057Z,100282.22
2022-09-03T17:39:49.540Z,100284.84
2022-09-03T17:41:54.751Z,100287.66
2022-09-03T17:44:05.141Z,100303.41
2022-09-03T17:46:20.467Z,100297.25
2022-09-03T17:48:44.592Z,100298.22
2022-09-03T17:50:53.959Z,100304.56
2022-09-03T17:53:01.831Z,100305.59
2022-09-03T17:55:18.038Z,100315.44
2022-09-03T17:57:24.659Z,100320.81
2022-09-03T17:59:41.275Z,100324.38
2022-09-03T18:01:52.269Z,100329.66
2022-09-03T18:04:02.148Z,100335.94
2022-09-03T18:06:11.957Z,100335.13
2022-09-03T18:08:21.719Z,100340.50
2022-09-03T18:10:31.167Z,100345.03
2022-09-03T18:12:44.271Z,100338.88
2022-09-03T18:15:08.846Z,100340.78
2022-09-03T18:17:18.281Z,100352.31
2022-09-03T18:19:31.350Z,100354.13
2022-09-03T18:21:57.269Z,100359.59
2022-09-03T18:24:25.685Z,100357.03
2022-09-03T18:26:49.895Z,100354.59
2022-09-03T18:29:17.890Z,100370.56
2022-09-03T18:31:38.337Z,100375.03
2022-09-03T18:33:59.012Z,100376.06
2022-09-03T18:36:19.533Z,100374.34
2022-09-03T18:38:45.564Z,100370.94
2022-09-03T18:41:12.722Z,100376.22
2022-09-03T18:43:42.329Z,100386.84
2022-09-03T18:49:01.453Z,100377.38
2022-09-03T18:51:28.983Z,100386.19
2022-09-03T18:53:59.131Z,100380.00
2022-09-03T18:56:27.636Z,100384.41
2022-09-03T18:58:59.920Z,100382.66
2022-09-03T19:01:29.932Z,100390.72
2022-09-03T19:04:06.118Z,100385.47
2022-09-03T19:06:37.427Z,100388.06
2022-09-03T19:09:08.014Z,100395.06
2022-09-03T19:11:45.352Z,100389.78
2022-09-03T19:14:06.287Z,100387.25
2022-09-03T19:16:31.809Z,100395.16
2022-09-03T19:19:17.781Z,100392.63
2022-09-03T19:21:44.535Z,100398.91
2022-09-03T19:24:06.598Z,100402.44
2022-09-03T19:26:38.851Z,100403.31
2022-09-03T19:29:02.735Z,100404.28
2022-09-03T19:31:39.638Z,100409.56
2022-09-03T19:34:09.669Z,100406.16
2022-09-03T19:36:37.962Z,100410.72
2022-09-03T19:39:13.223Z,100418.56
2022-09-03T19:41:41.934Z,100413.34
2022-09-03T19:44:15.822Z,100419.56
2022-09-03T19:46:48.720Z,100416.97
2022-09-03T19:49:22.551Z,100427.53
2022-09-03T19:51:51.212Z,100422.25
2022-09-03T19:54:14.600Z,100423.16
2022-09-03T19:56:44.065Z,100417.91
2022-09-03T19:59:08.112Z,100411.81
2022-09-03T20:01:29.550Z,100429.44
2022-09-03T20:03:50.741Z,100426.03
2022-09-03T20:06:11.617Z,100426.88
2022-09-03T20:08:35.583Z,100425.09
2022-09-03T20:10:40.286Z,100429.47
2022-09-03T20:12:48.621Z,100426.81
2022-09-03T20:14:51.402Z,100425.13
2022-09-03T20:17:08.576Z,100423.38
2022-09-03T20:19:20.185Z,100426.09
2022-09-03T20:21:26.752Z,100426.16
2022-09-03T20:23:37.149Z,100428.78
2022-09-03T20:25:55.568Z,100419.94
2022-09-03T20:28:09.896Z,100429.63
2022-09-03T20:30:16.169Z,100426.19
2022-09-03T20:32:35.614Z,100433.16
2022-09-03T20:34:47.848Z,100431.47
2022-09-03T20:36:58.215Z,100440.22
2022-09-03T20:39:15.455Z,100434.09
2022-09-03T20:41:26.347Z,100434.09
2022-09-03T20:43:43.275Z,100435.03
2022-09-03T20:46:00.281Z,100431.50
2022-09-03T20:48:23.468Z,100444.69
2022-09-03T20:50:43.557Z,100444.75
2022-09-03T20:52:56.692Z,100436.81
2022-09-03T20:55:08.787Z,100439.44
2022-09-03T20:57:29.639Z,100439.44
2022-09-03T20:59:45.486Z,100437.72
2022-09-03T21:01:55.229Z,100435.13
2022-09-03T21:04:12.895Z,100443.91
2022-09-03T21:06:30.032Z,100446.63
2022-09-03T21:08:53.779Z,100449.28
2022-09-03T21:11:06.259Z,100449.31
2022-09-03T21:13:20.342Z,100450.22
2022-09-03T21:15:37.275Z,100451.06
2022-09-03T21:17:53.138Z,100453.72
2022-09-03T21:20:06.738Z,100457.38
2022-09-03T21:22:21.994Z,100460.00
2022-09-03T21:24:31.408Z,100463.50
2022-09-03T21:26:41.904Z,100458.22
2022-09-03T21:28:54.486Z,100473.19
2022-09-03T21:31:01.040Z,100471.38
2022-09-03T21:33:07.873Z,100467.84
2022-09-03T21:35:18.830Z,100468.69
2022-09-03T21:37:23.753Z,100472.28
2022-09-03T21:39:29.338Z,100465.25
2022-09-03T21:41:37.688Z,100471.34
2022-09-03T21:43:51.311Z,100475.59
2022-09-03T21:46:01.885Z,100475.53
2022-09-03T21:48:09.886Z,100479.06
2022-09-03T21:50:18.498Z,100489.50
2022-09-03T21:52:28.076Z,100481.66
2022-09-03T21:54:33.623Z,100486.03
2022-09-03T21:56:59.780Z,100484.22
2022-09-03T21:59:14.094Z,100483.38
2022-09-03T22:01:22.401Z,100479.94
2022-09-03T22:03:25.299Z,100479.91
2022-09-03T22:05:33.058Z,100481.63
2022-09-03T22:07:53.623Z,100481.63
2022-09-03T22:10:04.321Z,100486.97
2022-09-03T22:12:13.887Z,100486.19
2022-09-03T22:14:20.858Z,100490.66
2022-09-03T22:16:30.169Z,100486.28
2022-09-03T22:18:37.908Z,100486.31
2022-09-03T22:20:41.240Z,100488.06
2022-09-03T22:22:50.678Z,100489.81
2022-09-03T22:25:02.004Z,100491.63
2022-09-03T22:27:10.817Z,100495.19
2022-09-03T22:29:27.550Z,100496.13
2022-09-03T22:31:42.984Z,100495.28
2022-09-03T22:33:58.466Z,100496.19
2022-09-03T22:36:12.920Z,100495.41
2022-09-03T22:38:31.330Z,100498.13
2022-09-03T22:40:40.300Z,100495.59
2022-09-03T22:42:58.100Z,100499.25
2022-09-03T22:45:15.902Z,100497.53
2022-09-03T22:47:27.538Z,100501.09
2022-09-03T22:49:40.140Z,100502.81
2022-09-03T22:51:55.767Z,100501.94
2022-09-03T22:54:10.286Z,100503.72
2022-09-03T22:56:18.717Z,100504.69
2022-09-03T22:58:25.327Z,100503.88
2022-09-03T23:00:43.048Z,100514.38
2022-09-03T23:02:51.239Z,100507.31
2022-09-03T23:05:01.950Z,100506.47
2022-09-03T23:07:18.871Z,100515.22
2022-09-03T23:09:26.068Z,100518.69
2022-09-03T23:11:34.549Z,100519.63
2022-09-03T23:13:41.904Z,100517.91
2022-09-03T23:15:52.750Z,100520.50
2022-09-03T23:18:05.327Z,100524.88
2022-09-03T23:20:13.383Z,100518.69
2022-09-03T23:22:22.767Z,100528.38
2022-09-03T23:24:31.492Z,100525.81
2022-09-03T23:26:39.976Z,100526.72
2022-09-03T23:28:46.290Z,100529.41
2022-09-03T23:30:50.933Z,100535.50
2022-09-03T23:32:56.845Z,100532.91
2022-09-03T23:35:00.233Z,100525.91
2022-09-03T23:37:35.276Z,100531.19
2022-09-03T23:40:09.243Z,100532.16
2022-09-03T23:42:20.805Z,100538.34
2022-09-03T23:44:39.009Z,100529.63
2022-09-03T23:46:54.714Z,100539.28
2022-09-03T23:49:22.648Z,100531.41
2022-09-03T23:51:40.195Z,100540.22
2022-09-03T23:53:51.598Z,100530.53
2022-09-03T23:56:08.461Z,100540.19
2022-09-03T23:58:21.837Z,100533.28
